createdAt,value
2019-03-25T00:01:17.766Z,8.57
2019-03-25T00:03:46.518Z,8.58
2019-03-25T00:06:15.206Z,8.57
2019-03-25T00:08:44.025Z,8.60
2019-03-25T00:11:12.539Z,8.63
2019-03-25T00:13:41.093Z,8.57
2019-03-25T00:16:09.634Z,8.55
2019-03-25T00:18:38.191Z,8.60
2019-03-25T00:21:06.807Z,8.62
2019-03-25T00:23:35.430Z,8.64
2019-03-25T00:26:04.072Z,8.52
2019-03-25T00:28:32.588Z,8.50
2019-03-25T00:31:01.213Z,8.52
2019-03-25T00:33:30.123Z,8.54
2019-03-25T00:35:58.959Z,8.52
2019-03-25T00:38:27.400Z,8.53
2019-03-25T00:40:56.024Z,8.51
2019-03-25T00:43:24.582Z,8.45
2019-03-25T00:45:53.138Z,8.33
2019-03-25T00:48:21.837Z,8.30
2019-03-25T00:50:50.350Z,8.23
2019-03-25T00:53:18.910Z,8.28
2019-03-25T00:55:47.443Z,8.24
2019-03-25T00:58:15.973Z,8.23
2019-03-25T01:00:44.683Z,8.22
2019-03-25T01:03:13.452Z,8.11
2019-03-25T01:05:42.154Z,8.14
2019-03-25T01:08:10.922Z,8.19
2019-03-25T01:10:39.843Z,8.22
2019-03-25T01:13:08.462Z,8.16
2019-03-25T01:15:37.151Z,7.97
2019-03-25T01:18:16.146Z,7.90
2019-03-25T01:20:35.825Z,7.93
2019-03-25T01:23:04.469Z,8.09
2019-03-25T01:25:33.110Z,8.12
2019-03-25T01:28:01.770Z,7.61
2019-03-25T01:30:30.426Z,7.39
2019-03-25T01:32:59.129Z,7.53
2019-03-25T01:35:27.833Z,7.74
2019-03-25T01:37:56.392Z,7.65
2019-03-25T01:40:25.306Z,7.71
2019-03-25T01:42:53.937Z,7.61
2019-03-25T01:45:22.543Z,7.66
2019-03-25T01:47:51.268Z,7.61
2019-03-25T01:50:19.893Z,7.69
2019-03-25T01:52:48.487Z,7.65
2019-03-25T01:55:17.310Z,7.67
2019-03-25T01:57:45.959Z,7.61
2019-03-25T02:00:14.929Z,7.59
2019-03-25T02:02:43.377Z,7.63
2019-03-25T02:05:12.062Z,7.44
2019-03-25T02:07:40.616Z,7.38
2019-03-25T02:10:10.326Z,7.45
2019-03-25T02:12:38.871Z,7.39
2019-03-25T02:15:07.782Z,7.31
2019-03-25T02:17:36.375Z,7.28
2019-03-25T02:20:06.719Z,7.32
2019-03-25T02:22:35.227Z,7.19
2019-03-25T02:25:06.027Z,7.26
2019-03-25T02:27:34.717Z,7.29
2019-03-25T02:30:04.520Z,7.23
2019-03-25T02:32:32.993Z,7.33
2019-03-25T02:35:01.529Z,7.27
2019-03-25T02:37:30.389Z,7.18
2019-03-25T02:39:59.050Z,7.21
2019-03-25T02:42:27.767Z,7.28
2019-03-25T02:44:56.602Z,7.21
2019-03-25T02:47:25.286Z,7.17
2019-03-25T02:49:54.004Z,7.26
2019-03-25T02:52:22.658Z,7.26
2019-03-25T02:54:51.396Z,7.17
2019-03-25T02:57:20.035Z,7.13
2019-03-25T02:59:48.662Z,7.03
2019-03-25T03:02:17.483Z,7.02
2019-03-25T03:04:46.211Z,6.92
2019-03-25T03:07:14.775Z,6.97
2019-03-25T03:09:43.514Z,7.00
2019-03-25T03:12:12.159Z,6.92
2019-03-25T03:14:40.900Z,6.81
2019-03-25T03:17:09.827Z,6.84
2019-03-25T03:19:38.574Z,6.83
2019-03-25T03:22:07.329Z,6.75
2019-03-25T03:24:36.233Z,6.91
2019-03-25T03:27:05.003Z,6.74
2019-03-25T03:29:33.738Z,6.80
2019-03-25T03:32:02.587Z,6.75
2019-03-25T03:34:31.395Z,6.72
2019-03-25T03:37:00.158Z,6.71
2019-03-25T03:39:29.084Z,6.67
2019-03-25T03:41:57.735Z,6.46
2019-03-25T03:44:26.167Z,6.53
2019-03-25T03:46:54.979Z,6.62
2019-03-25T03:49:23.678Z,6.56
2019-03-25T03:51:54.815Z,6.45
2019-03-25T03:54:24.031Z,6.37
2019-03-25T03:56:55.663Z,6.20
2019-03-25T03:59:25.588Z,5.92
2019-03-25T04:01:54.186Z,5.86
2019-03-25T04:04:22.974Z,6.02
2019-03-25T04:06:51.736Z,6.09
2019-03-25T04:09:20.528Z,5.98
2019-03-25T04:11:49.324Z,5.78
2019-03-25T04:14:18.103Z,5.82
2019-03-25T04:16:46.918Z,5.88
2019-03-25T04:19:15.771Z,5.86
2019-03-25T04:21:44.495Z,5.72
2019-03-25T04:24:13.283Z,5.73
2019-03-25T04:26:42.159Z,5.74
2019-03-25T04:29:11.142Z,5.81
2019-03-25T04:31:39.768Z,5.96
2019-03-25T04:34:08.533Z,5.97
2019-03-25T04:36:36.899Z,5.95
2019-03-25T04:39:07.987Z,6.00
2019-03-25T04:41:36.801Z,6.03
2019-03-25T04:44:05.545Z,5.98
2019-03-25T04:46:35.549Z,6.09
2019-03-25T04:49:03.949Z,6.08
2019-03-25T04:51:32.823Z,6.04
2019-03-25T04:54:01.649Z,6.14
2019-03-25T04:56:39.027Z,5.84
2019-03-25T04:59:00.816Z,5.74
2019-03-25T05:01:29.599Z,5.86
2019-03-25T05:03:58.081Z,5.92
2019-03-25T05:06:26.906Z,5.88
2019-03-25T05:08:55.367Z,6.01
2019-03-25T05:11:30.485Z,5.96
2019-03-25T05:13:54.615Z,5.94
2019-03-25T05:16:23.474Z,5.90
2019-03-25T05:18:52.336Z,5.98
2019-03-25T05:21:21.871Z,6.02
2019-03-25T05:23:50.671Z,6.22
2019-03-25T05:26:19.465Z,6.09
2019-03-25T05:28:48.220Z,6.10
2019-03-25T05:31:16.968Z,6.07
2019-03-25T05:33:45.824Z,5.87
2019-03-25T05:36:14.656Z,5.83
2019-03-25T05:38:43.391Z,5.99
2019-03-25T05:41:12.179Z,5.94
2019-03-25T05:43:41.153Z,6.01
2019-03-25T05:46:10.147Z,5.92
2019-03-25T05:48:38.855Z,5.99
2019-03-25T05:51:07.616Z,6.27
2019-03-25T05:53:36.367Z,6.27
2019-03-25T05:56:06.025Z,6.38
2019-03-25T05:58:34.642Z,6.56
2019-03-25T06:01:03.493Z,6.56
2019-03-25T06:03:31.972Z,6.66
2019-03-25T06:06:00.661Z,6.70
2019-03-25T06:08:29.499Z,6.65
2019-03-25T06:10:58.289Z,6.75
2019-03-25T06:13:27.117Z,6.53
2019-03-25T06:15:56.100Z,6.68
2019-03-25T06:18:24.694Z,6.78
2019-03-25T06:20:54.953Z,6.96
2019-03-25T06:23:23.323Z,6.77
2019-03-25T06:25:51.970Z,6.90
2019-03-25T06:28:20.674Z,6.95
2019-03-25T06:30:49.501Z,7.03
2019-03-25T06:33:18.297Z,6.98
2019-03-25T06:35:47.107Z,7.17
2019-03-25T06:38:15.939Z,7.18
2019-03-25T06:40:44.675Z,7.18
2019-03-25T06:43:13.643Z,7.25
2019-03-25T06:45:42.300Z,7.30
2019-03-25T06:48:11.040Z,7.26
2019-03-25T06:50:39.827Z,7.46
2019-03-25T06:53:08.653Z,7.54
2019-03-25T06:55:37.409Z,7.54
2019-03-25T06:58:06.191Z,7.59
2019-03-25T07:00:35.019Z,7.48
2019-03-25T07:03:03.753Z,7.46
2019-03-25T07:05:32.652Z,7.71
2019-03-25T07:08:01.389Z,7.73
2019-03-25T07:10:32.779Z,7.87
2019-03-25T07:13:02.308Z,8.03
2019-03-25T07:15:31.135Z,7.89
2019-03-25T07:17:59.978Z,7.93
2019-03-25T07:20:28.709Z,7.84
2019-03-25T07:22:57.613Z,7.91
2019-03-25T07:25:26.273Z,7.98
2019-03-25T07:27:55.097Z,8.24
2019-03-25T07:30:23.919Z,8.09
2019-03-25T07:32:52.677Z,8.24
2019-03-25T07:35:22.435Z,8.34
2019-03-25T07:37:51.407Z,8.41
2019-03-25T07:40:20.085Z,8.58
2019-03-25T07:42:49.015Z,8.49
2019-03-25T07:45:17.721Z,8.57
2019-03-25T07:47:46.123Z,8.51
2019-03-25T07:50:14.830Z,8.73
2019-03-25T07:52:43.615Z,8.81
2019-03-25T07:55:12.449Z,8.86
2019-03-25T07:57:48.081Z,8.64
2019-03-25T08:00:15.058Z,8.80
2019-03-25T08:02:43.810Z,9.14
2019-03-25T08:05:12.898Z,8.98
2019-03-25T08:07:41.610Z,8.90
2019-03-25T08:10:10.448Z,8.62
2019-03-25T08:12:39.163Z,9.16
2019-03-25T08:15:08.289Z,8.93
2019-03-25T08:17:36.782Z,9.02
2019-03-25T08:20:08.247Z,8.97
2019-03-25T08:22:36.861Z,8.78
2019-03-25T08:25:07.298Z,9.14
2019-03-25T08:27:36.091Z,9.36
2019-03-25T08:30:07.727Z,9.78
2019-03-25T08:32:36.219Z,10.68
2019-03-25T08:35:06.927Z,10.71
2019-03-25T08:37:35.386Z,10.54
2019-03-25T08:40:06.209Z,9.99
2019-03-25T08:42:34.877Z,10.46
2019-03-25T08:45:03.680Z,9.90
2019-03-25T08:47:32.335Z,9.85
2019-03-25T08:50:01.201Z,11.86
2019-03-25T08:52:30.003Z,10.54
2019-03-25T08:54:58.805Z,9.96
2019-03-25T08:57:27.541Z,10.02
2019-03-25T08:59:57.705Z,10.23
2019-03-25T09:02:26.797Z,11.64
2019-03-25T09:04:55.251Z,15.82
2019-03-25T09:07:23.956Z,11.97
2019-03-25T09:09:53.153Z,12.56
2019-03-25T09:12:22.069Z,16.49
2019-03-25T09:14:51.016Z,19.83
2019-03-25T09:17:19.667Z,20.92
2019-03-25T09:19:48.440Z,14.42
2019-03-25T09:22:17.272Z,12.02
2019-03-25T09:24:46.105Z,12.61
2019-03-25T09:27:14.905Z,11.20
2019-03-25T09:29:43.654Z,10.70
2019-03-25T09:32:12.469Z,10.40
2019-03-25T09:34:41.565Z,10.27
2019-03-25T09:37:10.486Z,10.23
2019-03-25T09:39:39.474Z,10.24
2019-03-25T09:42:08.128Z,10.79
2019-03-25T09:44:36.944Z,22.93
2019-03-25T09:47:05.620Z,29.05
2019-03-25T09:49:34.682Z,27.86
2019-03-25T09:52:03.315Z,29.02
2019-03-25T09:54:32.177Z,28.31
2019-03-25T09:57:01.270Z,27.80
2019-03-25T09:59:30.287Z,30.84
2019-03-25T10:01:58.888Z,33.07
2019-03-25T10:04:27.311Z,28.18
2019-03-25T10:06:55.922Z,17.59
2019-03-25T10:09:25.023Z,14.33
2019-03-25T10:11:53.556Z,12.73
2019-03-25T10:14:21.968Z,15.18
2019-03-25T10:16:50.393Z,20.44
2019-03-25T10:19:18.895Z,14.74
2019-03-25T10:21:47.395Z,14.15
2019-03-25T10:24:16.253Z,24.67
2019-03-25T10:26:44.800Z,16.84
2019-03-25T10:29:13.357Z,13.66
2019-03-25T10:31:41.916Z,26.25
2019-03-25T10:34:10.403Z,25.56
2019-03-25T10:36:38.916Z,18.64
2019-03-25T10:39:07.786Z,18.90
2019-03-25T10:41:38.456Z,21.67
2019-03-25T10:44:06.902Z,21.60
2019-03-25T10:46:35.846Z,21.90
2019-03-25T10:49:04.565Z,24.06
2019-03-25T10:51:33.486Z,25.83
2019-03-25T10:54:02.328Z,24.22
2019-03-25T10:56:30.954Z,24.69
2019-03-25T10:58:59.488Z,21.54
2019-03-25T11:01:27.926Z,18.28
2019-03-25T11:03:56.509Z,18.28
2019-03-25T11:06:25.420Z,16.27
2019-03-25T11:08:53.946Z,15.38
2019-03-25T11:11:22.426Z,14.14
2019-03-25T11:13:50.849Z,15.19
2019-03-25T11:16:19.591Z,24.11
2019-03-25T11:18:48.002Z,25.30
2019-03-25T11:21:16.479Z,20.54
2019-03-25T11:23:44.943Z,22.55
2019-03-25T11:26:13.560Z,17.82
2019-03-25T11:28:42.131Z,17.82
2019-03-25T11:31:10.772Z,15.94
2019-03-25T11:33:39.405Z,16.09
2019-03-25T11:36:08.028Z,15.61
2019-03-25T11:38:36.607Z,19.69
2019-03-25T11:41:05.292Z,27.13
2019-03-25T11:43:34.280Z,29.66
2019-03-25T11:46:02.885Z,29.55
2019-03-25T11:48:31.337Z,29.87
2019-03-25T11:51:00.016Z,29.78
2019-03-25T11:53:28.569Z,21.27
2019-03-25T11:55:57.171Z,24.95
2019-03-25T11:58:25.891Z,20.39
2019-03-25T12:00:54.678Z,26.35
2019-03-25T12:03:23.483Z,20.99
2019-03-25T12:05:52.152Z,23.04
2019-03-25T12:08:20.752Z,24.76
2019-03-25T12:10:49.645Z,18.34
2019-03-25T12:13:18.048Z,15.24
2019-03-25T12:15:46.567Z,18.75
2019-03-25T12:18:15.936Z,24.20
2019-03-25T12:20:44.599Z,21.70
2019-03-25T12:23:13.506Z,15.74
2019-03-25T12:25:42.312Z,14.81
2019-03-25T12:28:11.037Z,13.15
2019-03-25T12:30:39.602Z,11.82
2019-03-25T12:33:08.224Z,11.46
2019-03-25T12:35:36.833Z,11.13
2019-03-25T12:38:05.542Z,11.04
2019-03-25T12:40:34.154Z,10.46
2019-03-25T12:43:04.143Z,11.20
2019-03-25T12:45:32.914Z,18.84
2019-03-25T12:48:04.032Z,21.89
2019-03-25T12:50:32.981Z,22.46
2019-03-25T12:53:01.512Z,23.55
2019-03-25T12:55:30.112Z,19.41
2019-03-25T12:57:58.721Z,13.97
2019-03-25T13:00:36.604Z,12.71
2019-03-25T13:03:06.130Z,12.80
2019-03-25T13:05:34.809Z,12.69
2019-03-25T13:08:03.496Z,13.06
2019-03-25T13:10:31.923Z,13.46
2019-03-25T13:13:00.547Z,12.74
2019-03-25T13:15:29.087Z,11.77
2019-03-25T13:17:57.604Z,11.82
2019-03-25T13:20:26.199Z,12.02
2019-03-25T13:22:54.858Z,12.02
2019-03-25T13:25:23.546Z,11.91
2019-03-25T13:27:52.100Z,11.63
2019-03-25T13:30:20.687Z,11.41
2019-03-25T13:32:49.268Z,11.31
2019-03-25T13:35:18.007Z,10.88
2019-03-25T13:37:46.586Z,10.87
2019-03-25T13:40:15.214Z,11.29
2019-03-25T13:42:43.814Z,12.08
2019-03-25T13:45:12.402Z,12.85
2019-03-25T13:47:40.994Z,12.97
2019-03-25T13:50:09.778Z,13.28
2019-03-25T13:52:38.268Z,13.54
2019-03-25T13:55:07.878Z,13.50
2019-03-25T13:57:36.452Z,13.75
2019-03-25T14:00:06.949Z,13.78
2019-03-25T14:02:35.384Z,13.41
2019-03-25T14:05:05.177Z,13.77
2019-03-25T14:07:33.636Z,13.53
2019-03-25T14:10:02.480Z,13.66
2019-03-25T14:12:31.503Z,13.15
2019-03-25T14:15:00.313Z,12.79
2019-03-25T14:17:28.707Z,12.62
2019-03-25T14:19:57.354Z,12.59
2019-03-25T14:22:26.207Z,12.17
2019-03-25T14:24:54.618Z,12.24
2019-03-25T14:27:23.380Z,12.17
2019-03-25T14:29:51.916Z,12.22
2019-03-25T14:32:20.515Z,12.27
2019-03-25T14:34:49.103Z,11.75
2019-03-25T14:37:17.674Z,11.69
2019-03-25T14:39:46.325Z,11.65
2019-03-25T14:42:14.954Z,11.68
2019-03-25T14:44:43.645Z,11.38
2019-03-25T14:47:13.016Z,11.75
2019-03-25T14:49:41.428Z,11.78
2019-03-25T14:52:10.448Z,11.96
2019-03-25T14:54:40.258Z,11.81
2019-03-25T14:57:09.250Z,11.91
2019-03-25T14:59:38.324Z,12.11
2019-03-25T15:02:07.396Z,12.14
2019-03-25T15:04:35.803Z,12.12
2019-03-25T15:07:04.339Z,12.09
2019-03-25T15:09:32.992Z,12.01
2019-03-25T15:12:01.589Z,11.85
2019-03-25T15:14:30.746Z,11.77
2019-03-25T15:16:59.229Z,11.86
2019-03-25T15:19:27.850Z,11.77
2019-03-25T15:21:56.723Z,11.77
2019-03-25T15:24:25.444Z,11.70
2019-03-25T15:26:54.150Z,11.54
2019-03-25T15:29:22.638Z,11.79
2019-03-25T15:31:51.201Z,11.76
2019-03-25T15:34:19.885Z,11.79
2019-03-25T15:36:48.544Z,11.72
2019-03-25T15:39:17.404Z,11.87
2019-03-25T15:41:47.252Z,11.78
2019-03-25T15:44:16.044Z,11.39
2019-03-25T15:46:55.162Z,11.29
2019-03-25T15:49:15.617Z,11.31
2019-03-25T15:51:44.538Z,11.11
2019-03-25T15:54:13.572Z,11.09
2019-03-25T15:56:44.163Z,11.36
2019-03-25T15:59:12.955Z,11.35
2019-03-25T16:01:41.949Z,11.65
2019-03-25T16:04:10.965Z,11.49
2019-03-25T16:06:39.916Z,11.22
2019-03-25T16:09:09.132Z,11.29
2019-03-25T16:11:38.150Z,11.06
2019-03-25T16:14:06.878Z,10.77
2019-03-25T16:16:35.848Z,10.70
2019-03-25T16:19:04.938Z,10.51
2019-03-25T16:21:33.857Z,10.59
2019-03-25T16:24:02.942Z,10.51
2019-03-25T16:26:31.818Z,10.53
2019-03-25T16:29:00.779Z,10.58
2019-03-25T16:31:29.202Z,10.49
2019-03-25T16:33:58.118Z,10.56
2019-03-25T16:36:27.057Z,10.54
2019-03-25T16:38:55.484Z,10.41
2019-03-25T16:41:24.395Z,10.34
2019-03-25T16:43:53.375Z,10.36
2019-03-25T16:46:22.556Z,10.18
2019-03-25T16:48:51.713Z,10.27
2019-03-25T16:51:20.755Z,10.23
2019-03-25T16:53:49.789Z,10.22
2019-03-25T16:56:19.007Z,9.98
2019-03-25T16:58:47.873Z,10.02
2019-03-25T17:01:16.885Z,9.85
2019-03-25T17:03:45.366Z,9.89
2019-03-25T17:06:13.925Z,9.87
2019-03-25T17:08:42.786Z,10.00
2019-03-25T17:11:11.364Z,10.09
2019-03-25T17:13:40.380Z,9.91
2019-03-25T17:16:08.884Z,9.89
2019-03-25T17:18:37.322Z,9.90
2019-03-25T17:21:06.113Z,9.86
2019-03-25T17:23:34.842Z,9.52
2019-03-25T17:26:03.580Z,9.40
2019-03-25T17:28:32.562Z,9.25
2019-03-25T17:31:03.153Z,9.31
2019-03-25T17:33:31.781Z,9.23
2019-03-25T17:36:00.288Z,9.03
2019-03-25T17:38:28.728Z,8.63
2019-03-25T17:40:57.274Z,8.82
2019-03-25T17:43:25.999Z,8.83
2019-03-25T17:45:54.405Z,8.59
2019-03-25T17:48:23.312Z,8.59
2019-03-25T17:50:53.032Z,8.64
2019-03-25T17:53:21.928Z,8.49
2019-03-25T17:55:50.853Z,8.30
2019-03-25T17:58:19.814Z,8.47
2019-03-25T18:00:51.544Z,8.32
2019-03-25T18:03:20.523Z,8.27
2019-03-25T18:05:49.294Z,8.16
2019-03-25T18:08:18.248Z,8.32
2019-03-25T18:10:47.220Z,8.28
2019-03-25T18:13:22.260Z,8.34
2019-03-25T18:15:47.140Z,8.38
2019-03-25T18:18:16.146Z,8.39
2019-03-25T18:20:45.326Z,8.36
2019-03-25T18:23:14.259Z,8.42
2019-03-25T18:25:43.247Z,8.37
2019-03-25T18:28:12.232Z,8.40
2019-03-25T18:30:41.220Z,8.36
2019-03-25T18:33:10.273Z,8.32
2019-03-25T18:35:39.662Z,8.26
2019-03-25T18:38:08.430Z,8.30
2019-03-25T18:40:37.312Z,8.24
2019-03-25T18:43:06.273Z,8.05
2019-03-25T18:45:35.244Z,8.08
2019-03-25T18:48:04.264Z,8.14
2019-03-25T18:50:32.814Z,8.17
2019-03-25T18:53:01.741Z,8.24
2019-03-25T18:55:46.717Z,8.13
2019-03-25T18:58:15.318Z,8.00
2019-03-25T19:00:44.152Z,7.99
2019-03-25T19:03:12.576Z,7.93
2019-03-25T19:05:41.073Z,8.03
2019-03-25T19:08:10.094Z,7.93
2019-03-25T19:10:38.987Z,7.94
2019-03-25T19:13:07.397Z,8.02
2019-03-25T19:15:35.864Z,7.93
2019-03-25T19:18:04.778Z,7.91
2019-03-25T19:20:33.215Z,7.81
2019-03-25T19:23:02.206Z,7.60
2019-03-25T19:25:30.800Z,7.63
2019-03-25T19:27:59.934Z,7.69
2019-03-25T19:30:28.359Z,7.65
2019-03-25T19:32:57.475Z,7.65
2019-03-25T19:35:26.533Z,7.65
2019-03-25T19:37:54.954Z,7.56
2019-03-25T19:40:23.380Z,7.61
2019-03-25T19:42:52.363Z,7.63
2019-03-25T19:45:21.386Z,7.77
2019-03-25T19:47:49.822Z,7.74
2019-03-25T19:50:18.987Z,7.72
2019-03-25T19:52:47.429Z,7.68
2019-03-25T19:55:15.876Z,7.80
2019-03-25T19:57:44.441Z,7.70
2019-03-25T20:00:14.451Z,7.71
2019-03-25T20:02:42.880Z,7.80
2019-03-25T20:05:12.094Z,7.78
2019-03-25T20:07:41.204Z,7.66
2019-03-25T20:10:13.767Z,7.64
2019-03-25T20:12:42.457Z,7.72
2019-03-25T20:15:10.967Z,7.73
2019-03-25T20:17:39.595Z,7.68
2019-03-25T20:20:08.303Z,7.73
2019-03-25T20:22:38.470Z,7.74
2019-03-25T20:25:07.596Z,7.61
2019-03-25T20:27:36.148Z,7.68
2019-03-25T20:30:08.237Z,7.66
2019-03-25T20:32:36.895Z,7.60
2019-03-25T20:35:06.327Z,7.85
2019-03-25T20:37:34.813Z,7.77
2019-03-25T20:40:04.600Z,7.78
2019-03-25T20:42:33.484Z,7.93
2019-03-25T20:45:02.547Z,8.21
2019-03-25T20:47:31.124Z,8.18
2019-03-25T20:49:59.740Z,8.14
2019-03-25T20:52:28.537Z,7.91
2019-03-25T20:54:56.994Z,8.14
2019-03-25T20:57:25.387Z,8.13
2019-03-25T20:59:54.034Z,8.21
2019-03-25T21:02:22.475Z,8.17
2019-03-25T21:04:51.246Z,8.12
2019-03-25T21:07:19.793Z,8.12
2019-03-25T21:09:48.203Z,8.01
2019-03-25T21:12:17.365Z,8.11
2019-03-25T21:14:45.776Z,8.14
2019-03-25T21:17:14.829Z,8.14
2019-03-25T21:19:43.404Z,8.12
2019-03-25T21:22:11.964Z,8.03
2019-03-25T21:24:40.612Z,8.18
2019-03-25T21:27:09.036Z,8.23
2019-03-25T21:29:37.809Z,8.28
2019-03-25T21:32:07.103Z,8.15
2019-03-25T21:34:35.826Z,8.12
2019-03-25T21:37:05.680Z,7.99
2019-03-25T21:39:34.455Z,8.09
2019-03-25T21:42:02.948Z,7.83
2019-03-25T21:44:31.517Z,7.84
2019-03-25T21:47:00.077Z,7.73
2019-03-25T21:49:28.461Z,7.67
2019-03-25T21:51:57.363Z,7.68
2019-03-25T21:54:26.518Z,7.66
2019-03-25T21:56:55.057Z,7.64
2019-03-25T21:59:23.702Z,7.56
2019-03-25T22:01:52.296Z,7.49
2019-03-25T22:04:20.828Z,7.42
2019-03-25T22:06:49.383Z,7.45
2019-03-25T22:09:17.948Z,7.49
2019-03-25T22:11:46.454Z,7.37
2019-03-25T22:14:15.058Z,7.44
2019-03-25T22:16:43.592Z,7.47
2019-03-25T22:19:12.085Z,7.46
2019-03-25T22:21:40.698Z,7.45
2019-03-25T22:24:09.433Z,7.45
2019-03-25T22:26:38.415Z,7.50
2019-03-25T22:29:07.001Z,7.62
2019-03-25T22:31:35.502Z,7.60
2019-03-25T22:34:04.054Z,7.49
2019-03-25T22:36:32.620Z,7.42
2019-03-25T22:39:01.112Z,7.35
2019-03-25T22:41:29.683Z,7.35
2019-03-25T22:43:58.303Z,7.33
2019-03-25T22:46:26.704Z,7.27
2019-03-25T22:48:55.504Z,7.32
2019-03-25T22:51:23.901Z,7.39
2019-03-25T22:53:52.403Z,7.46
2019-03-25T22:56:20.999Z,7.50
2019-03-25T22:58:49.504Z,7.49
2019-03-25T23:01:18.083Z,7.42
2019-03-25T23:03:46.643Z,7.43
2019-03-25T23:06:15.291Z,7.45
2019-03-25T23:08:43.945Z,7.42
2019-03-25T23:11:12.421Z,7.44
2019-03-25T23:13:41.299Z,7.54
2019-03-25T23:16:09.792Z,7.60
2019-03-25T23:18:38.696Z,7.61
2019-03-25T23:21:08.005Z,7.64
2019-03-25T23:23:37.085Z,7.68
2019-03-25T23:26:05.552Z,7.62
2019-03-25T23:28:34.034Z,7.60
2019-03-25T23:31:02.404Z,7.67
2019-03-25T23:33:30.891Z,7.61
2019-03-25T23:35:59.586Z,7.49
2019-03-25T23:38:28.347Z,7.54
2019-03-25T23:40:56.729Z,7.58
2019-03-25T23:43:25.453Z,7.62
2019-03-25T23:45:54.309Z,7.64
2019-03-25T23:48:23.221Z,7.59
2019-03-25T23:50:52.242Z,7.60
2019-03-25T23:53:21.238Z,7.60
2019-03-25T23:55:50.154Z,7.59
2019-03-25T23:58:19.080Z,7.62
